Time;durP1;ratioP1;P1;durP2;ratioP2;P2;SDS_P1;SDS_P2;PMS_P1;PMS_P2;Temp;Humidity;BMP_temperature;BMP_pressure;BME280_temperature;BME280_humidity;BME280_pressure;Samples;Min_cycle;Max_cycle;Signal;HPM_P1;HPM_P2
2022/12/02 00:01:17;;;;;;;115.40;30.77;;;;;;;;;;5034805;28;20446;-81
2022/12/02 00:03:44;;;;;;;108.28;31.30;;;;;;;;;;5036193;28;20061;-82
2022/12/02 00:06:22;;;;;;;103.22;29.52;;;;;;;;;;5016394;28;20275;-81
2022/12/02 00:08:48;;;;;;;114.82;30.90;;;;;;;;;;5034045;28;20061;-80
2022/12/02 00:11:19;;;;;;;111.60;33.22;;;;;;;;;;5033841;28;20506;-82
2022/12/02 00:13:46;;;;;;;117.53;33.38;;;;;;;;;;5034383;28;20534;-81
2022/12/02 00:16:18;;;;;;;117.60;33.25;;;;;;;;;;5049166;28;20075;-79
2022/12/02 00:18:45;;;;;;;116.20;32.33;;;;;;;;;;5053953;28;20046;-79
2022/12/02 00:21:14;;;;;;;119.65;33.50;;;;;;;;;;5036318;28;20072;-81
2022/12/02 00:23:41;;;;;;;113.70;32.92;;;;;;;;;;5053451;28;20053;-80
2022/12/02 00:26:07;;;;;;;114.65;33.58;;;;;;;;;;5037165;28;20038;-80
2022/12/02 00:28:37;;;;;;;119.03;33.30;;;;;;;;;;5025060;28;20141;-82
2022/12/02 00:31:03;;;;;;;110.75;31.40;;;;;;;;;;5049397;28;20041;-79
2022/12/02 00:33:30;;;;;;;115.70;33.45;;;;;;;;;;5054211;28;20053;-80
2022/12/02 00:35:56;;;;;;;118.63;33.10;;;;;;;;;;5049076;28;20033;-79
2022/12/02 00:38:22;;;;;;;117.95;31.80;;;;;;;;;;5038149;28;20072;-82
2022/12/02 00:40:49;;;;;;;114.80;33.55;;;;;;;;;;5049908;28;20132;-81
2022/12/02 00:48:45;;;;;;;110.55;31.98;;;;;;;;;;5038924;28;20072;-80
2022/12/02 00:51:11;;;;;;;126.88;33.78;;;;;;;;;;5039301;28;20085;-81
2022/12/02 00:53:38;;;;;;;119.93;34.30;;;;;;;;;;5033519;28;20120;-80
2022/12/02 00:56:04;;;;;;;119.15;33.53;;;;;;;;;;5034005;28;20433;-80
2022/12/02 00:58:31;;;;;;;122.97;33.67;;;;;;;;;;5016420;28;20051;-81
2022/12/02 01:00:57;;;;;;;132.40;35.92;;;;;;;;;;5034233;28;20068;-80
2022/12/02 01:03:24;;;;;;;120.32;32.90;;;;;;;;;;5020920;28;20714;-78
2022/12/02 01:05:50;;;;;;;133.82;36.25;;;;;;;;;;5020741;28;20057;-80
2022/12/02 01:08:16;;;;;;;126.57;35.63;;;;;;;;;;5015643;28;20061;-81
2022/12/02 01:10:43;;;;;;;131.88;35.25;;;;;;;;;;5033106;28;20053;-81
2022/12/02 01:13:09;;;;;;;124.75;35.45;;;;;;;;;;5032852;28;20061;-81
2022/12/02 01:15:35;;;;;;;129.40;36.03;;;;;;;;;;5015839;28;20052;-81
2022/12/02 01:18:02;;;;;;;127.88;35.22;;;;;;;;;;5016155;28;20045;-81
2022/12/02 01:20:28;;;;;;;112.85;34.28;;;;;;;;;;5033501;28;20046;-80
2022/12/02 01:22:55;;;;;;;124.45;34.95;;;;;;;;;;5025534;28;20055;-78
2022/12/02 01:25:21;;;;;;;132.55;36.08;;;;;;;;;;5033769;28;20046;-78
2022/12/02 01:27:47;;;;;;;119.40;36.22;;;;;;;;;;5050526;28;20067;-79
2022/12/02 01:30:14;;;;;;;113.45;33.92;;;;;;;;;;5021622;28;20049;-78
2022/12/02 01:32:40;;;;;;;116.63;35.33;;;;;;;;;;5038391;28;20060;-78
2022/12/02 01:35:07;;;;;;;119.38;34.10;;;;;;;;;;5041095;28;20128;-80
2022/12/02 01:37:34;;;;;;;120.50;33.72;;;;;;;;;;5014787;28;20539;-80
2022/12/02 01:40:00;;;;;;;112.18;33.70;;;;;;;;;;5022778;28;20059;-80
2022/12/02 01:42:26;;;;;;;115.15;34.53;;;;;;;;;;5036421;28;20125;-77
2022/12/02 01:44:53;;;;;;;115.53;35.10;;;;;;;;;;5031041;28;20045;-80
2022/12/02 01:47:19;;;;;;;119.13;33.63;;;;;;;;;;5020720;28;20127;-79
2022/12/02 01:49:46;;;;;;;134.82;36.88;;;;;;;;;;5038573;28;20425;-81
2022/12/02 01:52:12;;;;;;;121.57;34.92;;;;;;;;;;5037656;28;20049;-81
2022/12/02 01:54:39;;;;;;;117.85;33.08;;;;;;;;;;5037836;28;20050;-80
2022/12/02 01:57:09;;;;;;;112.82;33.90;;;;;;;;;;5037899;28;20084;-81
2022/12/02 01:59:35;;;;;;;103.80;32.47;;;;;;;;;;5038296;28;20053;-81
2022/12/02 02:02:02;;;;;;;114.97;34.63;;;;;;;;;;5021251;28;20433;-80
2022/12/02 02:04:28;;;;;;;121.28;34.97;;;;;;;;;;5020784;28;20083;-82
2022/12/02 02:06:54;;;;;;;125.10;34.03;;;;;;;;;;5003486;28;20054;-80
2022/12/02 02:09:21;;;;;;;115.40;33.38;;;;;;;;;;5054439;28;20040;-78
2022/12/02 02:11:47;;;;;;;107.15;32.53;;;;;;;;;;5028241;28;20046;-82
2022/12/02 02:14:14;;;;;;;109.68;32.67;;;;;;;;;;5017675;28;20169;-81
2022/12/02 02:16:40;;;;;;;108.05;32.35;;;;;;;;;;5016803;28;20057;-80
2022/12/02 02:19:08;;;;;;;108.95;32.03;;;;;;;;;;5024121;28;20127;-77
2022/12/02 02:21:38;;;;;;;111.88;33.45;;;;;;;;;;5002519;28;20073;-79
2022/12/02 02:24:05;;;;;;;106.40;31.88;;;;;;;;;;5017137;28;20070;-81
2022/12/02 02:26:31;;;;;;;104.93;32.38;;;;;;;;;;5017780;28;20050;-81
2022/12/02 02:28:58;;;;;;;108.32;32.60;;;;;;;;;;5018646;28;20119;-80
2022/12/02 02:31:24;;;;;;;110.65;30.70;;;;;;;;;;5017893;28;20057;-82
2022/12/02 02:33:51;;;;;;;105.53;32.78;;;;;;;;;;5017903;28;20101;-82
2022/12/02 02:36:17;;;;;;;105.00;31.33;;;;;;;;;;5015807;28;20056;-81
2022/12/02 02:38:45;;;;;;;105.05;31.25;;;;;;;;;;4998690;28;20053;-80
2022/12/02 02:41:11;;;;;;;99.43;31.00;;;;;;;;;;5033269;28;20049;-80
2022/12/02 02:43:38;;;;;;;99.32;31.17;;;;;;;;;;5036824;28;20433;-81
2022/12/02 02:46:04;;;;;;;100.82;30.63;;;;;;;;;;5035855;28;20476;-79
2022/12/02 02:48:32;;;;;;;99.28;30.90;;;;;;;;;;5036294;28;20160;-80
2022/12/02 02:50:58;;;;;;;104.88;31.23;;;;;;;;;;5018618;28;20072;-81
2022/12/02 02:53:25;;;;;;;91.80;29.52;;;;;;;;;;5035762;28;20064;-78
2022/12/02 02:55:52;;;;;;;94.85;30.58;;;;;;;;;;5018194;28;20060;-80
2022/12/02 02:58:20;;;;;;;100.60;31.65;;;;;;;;;;5036516;28;20045;-79
2022/12/02 03:00:53;;;;;;;92.82;30.42;;;;;;;;;;5035809;28;20513;-80
2022/12/02 03:03:23;;;;;;;93.38;30.45;;;;;;;;;;5018231;28;20098;-79
2022/12/02 03:05:50;;;;;;;93.80;30.90;;;;;;;;;;5029259;28;20046;-81
2022/12/02 03:08:17;;;;;;;97.93;30.10;;;;;;;;;;5034551;28;20046;-79
2022/12/02 03:10:43;;;;;;;96.00;31.08;;;;;;;;;;5035889;28;20057;-79
2022/12/02 03:13:09;;;;;;;97.53;29.77;;;;;;;;;;5017900;28;20050;-80
2022/12/02 03:15:36;;;;;;;96.40;31.15;;;;;;;;;;5035727;28;20057;-81
2022/12/02 03:18:02;;;;;;;93.20;30.30;;;;;;;;;;5035690;28;20045;-81
2022/12/02 03:20:29;;;;;;;91.95;29.92;;;;;;;;;;5017433;28;20046;-81
2022/12/02 03:22:55;;;;;;;92.13;30.38;;;;;;;;;;5035698;28;20071;-80
2022/12/02 03:25:22;;;;;;;89.10;29.27;;;;;;;;;;5034994;28;20046;-78
2022/12/02 03:27:48;;;;;;;91.65;29.75;;;;;;;;;;5001721;28;20049;-81
2022/12/02 03:30:15;;;;;;;91.32;29.13;;;;;;;;;;5039654;28;20057;-79
2022/12/02 03:32:44;;;;;;;102.65;32.35;;;;;;;;;;5050968;28;20085;-79
2022/12/02 03:35:10;;;;;;;86.78;29.35;;;;;;;;;;5034133;28;20109;-79
2022/12/02 03:37:39;;;;;;;90.45;29.95;;;;;;;;;;5041486;28;20048;-82
2022/12/02 03:40:06;;;;;;;92.68;30.15;;;;;;;;;;5044560;28;20056;-81
2022/12/02 03:42:33;;;;;;;90.43;29.30;;;;;;;;;;5034825;28;20049;-81
2022/12/02 03:45:00;;;;;;;83.95;29.38;;;;;;;;;;5034732;28;20046;-81
2022/12/02 03:47:27;;;;;;;90.43;28.63;;;;;;;;;;5033522;28;20063;-81
2022/12/02 03:49:54;;;;;;;83.05;28.73;;;;;;;;;;5036409;28;20053;-79
2022/12/02 03:52:20;;;;;;;83.45;29.33;;;;;;;;;;5026514;28;20133;-79
2022/12/02 03:54:47;;;;;;;76.55;27.88;;;;;;;;;;5034557;28;20065;-80
2022/12/02 03:57:20;;;;;;;87.53;28.35;;;;;;;;;;5017877;28;20311;-82
2022/12/02 03:59:46;;;;;;;83.45;28.35;;;;;;;;;;5019291;28;20045;-80
2022/12/02 04:02:13;;;;;;;79.63;28.52;;;;;;;;;;5036364;28;20046;-80
2022/12/02 04:04:39;;;;;;;78.55;28.27;;;;;;;;;;5034907;28;20249;-80
2022/12/02 04:07:06;;;;;;;83.78;27.27;;;;;;;;;;5034191;28;20072;-80
2022/12/02 04:09:35;;;;;;;89.85;28.90;;;;;;;;;;5034865;28;20124;-81
2022/12/02 04:12:01;;;;;;;85.13;27.52;;;;;;;;;;5043795;28;20526;-78
2022/12/02 04:14:28;;;;;;;83.97;27.67;;;;;;;;;;5032282;28;20088;-79
2022/12/02 04:16:54;;;;;;;80.95;28.77;;;;;;;;;;5029920;28;20052;-79
2022/12/02 04:19:21;;;;;;;86.47;29.02;;;;;;;;;;5030909;28;20057;-79
2022/12/02 04:21:47;;;;;;;84.57;27.70;;;;;;;;;;5034093;28;20043;-77
2022/12/02 04:24:14;;;;;;;80.82;27.95;;;;;;;;;;5049962;28;20045;-79
2022/12/02 04:26:40;;;;;;;82.60;28.52;;;;;;;;;;5052592;28;20045;-80
2022/12/02 04:29:09;;;;;;;87.57;27.40;;;;;;;;;;5039196;28;20180;-82
2022/12/02 04:31:35;;;;;;;81.57;28.65;;;;;;;;;;5035591;28;20088;-82
2022/12/02 04:34:02;;;;;;;90.15;28.85;;;;;;;;;;5034296;28;20502;-81
2022/12/02 04:36:28;;;;;;;82.53;28.10;;;;;;;;;;5037365;28;20113;-79
2022/12/02 04:38:55;;;;;;;80.57;28.17;;;;;;;;;;5015871;28;20049;-79
2022/12/02 04:41:21;;;;;;;87.80;28.00;;;;;;;;;;5040601;28;20053;-78
2022/12/02 04:43:48;;;;;;;81.18;27.98;;;;;;;;;;4995841;28;20046;-80
2022/12/02 04:46:15;;;;;;;79.40;28.13;;;;;;;;;;5013683;28;20054;-82
2022/12/02 04:48:41;;;;;;;87.85;29.08;;;;;;;;;;5014512;28;20060;-83
2022/12/02 04:51:07;;;;;;;89.70;28.65;;;;;;;;;;4996372;28;20141;-83
2022/12/02 04:53:34;;;;;;;88.28;28.85;;;;;;;;;;4996297;28;20049;-80
2022/12/02 04:56:00;;;;;;;90.53;29.67;;;;;;;;;;5014706;28;20050;-82
2022/12/02 04:58:27;;;;;;;94.93;29.42;;;;;;;;;;5014483;28;20046;-81
2022/12/02 05:00:53;;;;;;;85.93;29.20;;;;;;;;;;5014180;28;20046;-80
2022/12/02 05:03:19;;;;;;;89.18;29.38;;;;;;;;;;4996279;28;20125;-79
2022/12/02 05:05:46;;;;;;;95.00;29.98;;;;;;;;;;5015725;28;20058;-80
2022/12/02 05:08:12;;;;;;;91.25;29.75;;;;;;;;;;5016390;28;20056;-77
2022/12/02 05:10:39;;;;;;;90.03;29.65;;;;;;;;;;4996535;28;20074;-79
2022/12/02 05:13:05;;;;;;;93.35;30.20;;;;;;;;;;5011865;28;20050;-80
2022/12/02 05:15:32;;;;;;;94.60;29.63;;;;;;;;;;5012039;28;20054;-81
2022/12/02 05:17:58;;;;;;;86.55;27.63;;;;;;;;;;5012268;28;20061;-81
2022/12/02 05:20:25;;;;;;;86.30;28.75;;;;;;;;;;5012212;28;20046;-80
2022/12/02 05:22:51;;;;;;;86.88;28.88;;;;;;;;;;5013740;28;20053;-79
2022/12/02 05:25:18;;;;;;;83.15;27.00;;;;;;;;;;4993593;28;20042;-81
2022/12/02 05:27:44;;;;;;;89.57;29.35;;;;;;;;;;5010835;28;20069;-80
2022/12/02 05:30:12;;;;;;;88.80;31.00;;;;;;;;;;5011612;28;20061;-79
2022/12/02 05:32:38;;;;;;;78.30;27.95;;;;;;;;;;5012706;28;20069;-79
2022/12/02 05:35:05;;;;;;;84.00;27.30;;;;;;;;;;5012938;28;20057;-81
2022/12/02 05:37:31;;;;;;;82.30;28.67;;;;;;;;;;5012224;28;20057;-78
2022/12/02 05:39:58;;;;;;;79.22;27.17;;;;;;;;;;5026246;28;20052;-80
2022/12/02 05:42:26;;;;;;;86.00;27.40;;;;;;;;;;5031330;28;20059;-79
2022/12/02 05:44:52;;;;;;;87.95;29.55;;;;;;;;;;5013839;28;20045;-79
2022/12/02 05:47:19;;;;;;;86.72;28.23;;;;;;;;;;5030949;28;20107;-82
2022/12/02 05:49:46;;;;;;;74.68;26.65;;;;;;;;;;5031104;28;20072;-80
2022/12/02 05:52:32;;;;;;;82.97;28.10;;;;;;;;;;5031213;28;20091;-78
2022/12/02 05:55:06;;;;;;;84.53;29.48;;;;;;;;;;5030190;28;20049;-80
2022/12/02 05:57:32;;;;;;;77.70;26.23;;;;;;;;;;5031968;28;20062;-79
2022/12/02 06:00:25;;;;;;;74.15;27.17;;;;;;;;;;5030907;28;20045;-81
2022/12/02 06:02:57;;;;;;;77.15;27.17;;;;;;;;;;5008677;28;20056;-80
2022/12/02 06:05:26;;;;;;;73.60;27.33;;;;;;;;;;5019430;28;20041;-77
2022/12/02 06:07:53;;;;;;;76.03;26.20;;;;;;;;;;5011951;28;20362;-81
2022/12/02 06:10:25;;;;;;;76.82;27.33;;;;;;;;;;4992473;28;20061;-80
2022/12/02 06:12:52;;;;;;;73.93;26.65;;;;;;;;;;5009478;28;20072;-81
2022/12/02 06:15:18;;;;;;;74.47;26.25;;;;;;;;;;4994224;28;20116;-81
2022/12/02 06:17:45;;;;;;;82.63;26.55;;;;;;;;;;5011479;28;20070;-83
2022/12/02 06:20:15;;;;;;;75.68;27.45;;;;;;;;;;4994882;28;20054;-84
2022/12/02 06:22:41;;;;;;;75.97;27.10;;;;;;;;;;4994200;28;20068;-84
2022/12/02 06:25:21;;;;;;;72.45;25.65;;;;;;;;;;5011896;28;20046;-83
2022/12/02 06:27:47;;;;;;;70.32;25.08;;;;;;;;;;4996424;28;20061;-83
2022/12/02 06:30:14;;;;;;;72.40;26.63;;;;;;;;;;4997820;28;20049;-84
2022/12/02 06:32:45;;;;;;;71.65;26.45;;;;;;;;;;5016466;28;20073;-84
2022/12/02 06:35:37;;;;;;;75.25;26.70;;;;;;;;;;5016225;28;20050;-83
2022/12/02 06:38:18;;;;;;;78.20;26.75;;;;;;;;;;4997606;28;20052;-86
2022/12/02 06:40:44;;;;;;;72.15;26.45;;;;;;;;;;5011765;28;20057;-83
2022/12/02 06:43:13;;;;;;;72.40;26.63;;;;;;;;;;5037681;28;20383;-83
2022/12/02 06:45:41;;;;;;;76.65;27.02;;;;;;;;;;5019429;28;20057;-84
2022/12/02 06:48:19;;;;;;;74.95;27.13;;;;;;;;;;5037317;28;20084;-85
2022/12/02 06:50:47;;;;;;;71.28;26.60;;;;;;;;;;5018671;28;20045;-84
2022/12/02 06:53:24;;;;;;;71.90;26.77;;;;;;;;;;5036848;28;20049;-82
2022/12/02 06:56:14;;;;;;;69.53;25.75;;;;;;;;;;5036153;28;20060;-84
2022/12/02 06:58:42;;;;;;;68.28;25.85;;;;;;;;;;5022347;28;20057;-83
2022/12/02 07:01:17;;;;;;;67.35;25.70;;;;;;;;;;5035449;28;20057;-82
2022/12/02 07:03:43;;;;;;;;;;;;;;;;;;5035406;28;20053;-82
2022/12/02 07:06:20;;;;;;;67.07;24.23;;;;;;;;;;5034217;28;20353;-82
2022/12/02 07:08:47;;;;;;;72.18;25.92;;;;;;;;;;5035648;28;20053;-83
2022/12/02 07:11:17;;;;;;;71.05;26.13;;;;;;;;;;5034478;28;20057;-84
2022/12/02 07:13:44;;;;;;;69.07;25.65;;;;;;;;;;5035206;28;20064;-82
2022/12/02 07:16:42;;;;;;;66.13;26.05;;;;;;;;;;5016834;28;20057;-81
2022/12/02 07:19:14;;;;;;;67.25;24.35;;;;;;;;;;4963966;28;20045;-82
2022/12/02 07:21:41;;;;;;;63.58;24.38;;;;;;;;;;5055249;28;20045;-79
2022/12/02 07:24:11;;;;;;;65.63;25.33;;;;;;;;;;5055785;28;20109;-80
2022/12/02 07:26:37;;;;;;;61.33;23.70;;;;;;;;;;5023289;28;20061;-83
2022/12/02 07:29:04;;;;;;;66.07;25.20;;;;;;;;;;5019488;28;20060;-84
2022/12/02 07:31:43;;;;;;;59.60;24.05;;;;;;;;;;5034346;28;20046;-82
2022/12/02 07:34:12;;;;;;;62.90;24.23;;;;;;;;;;5033304;28;20148;-80
2022/12/02 07:36:38;;;;;;;59.08;23.85;;;;;;;;;;5042580;28;20077;-80
2022/12/02 07:39:05;;;;;;;61.95;23.58;;;;;;;;;;5032740;28;20084;-81
2022/12/02 07:41:33;;;;;;;56.75;23.85;;;;;;;;;;5040641;28;20100;-82
2022/12/02 07:44:02;;;;;;;59.65;23.50;;;;;;;;;;5032868;28;20053;-80
2022/12/02 07:46:28;;;;;;;60.17;24.13;;;;;;;;;;5032326;28;20049;-81
2022/12/02 07:48:55;;;;;;;61.33;24.08;;;;;;;;;;5015708;28;20045;-81
2022/12/02 07:51:23;;;;;;;59.97;23.77;;;;;;;;;;5032472;28;20370;-84
2022/12/02 07:53:49;;;;;;;64.68;25.90;;;;;;;;;;5015748;28;20122;-84
2022/12/02 07:56:15;;;;;;;58.83;24.08;;;;;;;;;;5035372;28;20461;-82
2022/12/02 07:58:42;;;;;;;58.05;24.15;;;;;;;;;;5033608;28;20045;-82
2022/12/02 08:01:28;;;;;;;65.63;25.13;;;;;;;;;;5019172;28;20455;-83
2022/12/02 08:03:54;;;;;;;60.75;24.23;;;;;;;;;;5016271;28;20145;-80
2022/12/02 08:06:21;;;;;;;61.55;24.42;;;;;;;;;;5036742;28;20045;-81
2022/12/02 08:08:47;;;;;;;65.82;24.80;;;;;;;;;;5017855;28;20072;-85
2022/12/02 08:11:13;;;;;;;64.38;25.55;;;;;;;;;;5036179;28;20053;-82
2022/12/02 08:13:40;;;;;;;67.10;24.92;;;;;;;;;;5037352;28;20049;-79
2022/12/02 08:16:07;;;;;;;65.13;24.40;;;;;;;;;;5019812;28;20072;-80
2022/12/02 08:18:33;;;;;;;75.93;27.77;;;;;;;;;;5025372;28;20040;-79
2022/12/02 08:21:00;;;;;;;66.93;26.10;;;;;;;;;;5018818;28;20078;-80
2022/12/02 08:23:32;;;;;;;68.72;25.63;;;;;;;;;;5041032;28;20130;-81
2022/12/02 08:25:58;;;;;;;76.20;28.38;;;;;;;;;;5022957;28;20065;-82
2022/12/02 08:28:25;;;;;;;72.85;28.60;;;;;;;;;;5017238;28;20053;-82
2022/12/02 08:30:53;;;;;;;72.45;26.92;;;;;;;;;;5016011;28;20056;-83
2022/12/02 08:33:20;;;;;;;79.50;28.52;;;;;;;;;;5033582;28;20061;-83
2022/12/02 08:35:46;;;;;;;73.65;28.17;;;;;;;;;;5015340;28;20053;-80
2022/12/02 08:38:13;;;;;;;76.93;28.95;;;;;;;;;;5032327;28;20056;-82
2022/12/02 08:40:39;;;;;;;78.65;29.30;;;;;;;;;;5019513;28;20050;-83
2022/12/02 08:43:05;;;;;;;83.05;29.52;;;;;;;;;;5029250;28;20514;-83
2022/12/02 08:45:32;;;;;;;78.57;28.17;;;;;;;;;;5031972;28;20053;-83
2022/12/02 08:47:58;;;;;;;78.22;28.65;;;;;;;;;;5014917;28;20057;-81
2022/12/02 08:50:25;;;;;;;82.05;29.00;;;;;;;;;;5015020;28;20057;-82
2022/12/02 08:52:51;;;;;;;84.43;29.95;;;;;;;;;;5032373;28;20056;-82
2022/12/02 08:55:23;;;;;;;89.75;30.88;;;;;;;;;;5033421;28;20423;-81
2022/12/02 08:57:50;;;;;;;86.28;31.73;;;;;;;;;;5024162;28;20056;-78
2022/12/02 09:00:16;;;;;;;89.60;31.35;;;;;;;;;;5041925;28;20053;-81
2022/12/02 09:02:43;;;;;;;90.00;31.75;;;;;;;;;;5035752;28;20054;-80
2022/12/02 09:05:09;;;;;;;90.75;30.92;;;;;;;;;;5033889;28;20057;-79
2022/12/02 09:07:36;;;;;;;97.07;32.40;;;;;;;;;;5015138;28;20092;-82
2022/12/02 09:10:03;;;;;;;91.30;30.88;;;;;;;;;;5033292;28;20064;-81
2022/12/02 09:12:29;;;;;;;98.60;33.55;;;;;;;;;;5015512;28;20429;-80
2022/12/02 09:14:55;;;;;;;92.47;32.45;;;;;;;;;;5033072;28;20072;-78
2022/12/02 09:17:22;;;;;;;98.53;33.20;;;;;;;;;;5032803;28;20298;-83
2022/12/02 09:19:48;;;;;;;106.90;33.10;;;;;;;;;;5033173;28;20413;-81
2022/12/02 09:22:15;;;;;;;97.90;32.60;;;;;;;;;;5015349;28;20083;-83
2022/12/02 09:24:41;;;;;;;89.53;31.88;;;;;;;;;;5033127;28;20049;-82
2022/12/02 09:27:07;;;;;;;100.57;32.20;;;;;;;;;;5014812;28;20057;-81
2022/12/02 09:29:34;;;;;;;98.25;33.47;;;;;;;;;;5030806;28;20068;-81
2022/12/02 09:32:00;;;;;;;99.80;32.17;;;;;;;;;;5032276;28;20053;-82
2022/12/02 09:34:27;;;;;;;94.45;32.17;;;;;;;;;;5014558;28;20053;-84
2022/12/02 09:36:53;;;;;;;100.25;30.80;;;;;;;;;;5017541;28;20049;-79
2022/12/02 09:39:19;;;;;;;96.47;31.40;;;;;;;;;;5042584;28;20072;-80
2022/12/02 09:41:46;;;;;;;101.10;31.65;;;;;;;;;;5015197;28;20073;-79
2022/12/02 09:44:13;;;;;;;96.32;32.05;;;;;;;;;;5034785;28;20092;-84
2022/12/02 09:46:39;;;;;;;98.68;31.33;;;;;;;;;;5018011;28;20049;-83
2022/12/02 09:49:06;;;;;;;99.70;32.83;;;;;;;;;;5019043;28;20057;-81
2022/12/02 09:51:32;;;;;;;94.18;31.58;;;;;;;;;;5038567;28;20069;-81
2022/12/02 09:53:59;;;;;;;90.80;31.95;;;;;;;;;;5035953;28;20045;-81
2022/12/02 09:56:25;;;;;;;97.03;31.65;;;;;;;;;;5034848;28;20495;-80
2022/12/02 09:58:53;;;;;;;93.78;30.75;;;;;;;;;;5032895;28;20045;-80
2022/12/02 10:01:20;;;;;;;92.80;31.88;;;;;;;;;;5033411;28;20049;-79
2022/12/02 10:03:47;;;;;;;85.07;30.67;;;;;;;;;;5032863;28;20107;-82
2022/12/02 10:06:24;;;;;;;82.32;31.40;;;;;;;;;;5018168;28;20052;-80
2022/12/02 10:08:52;;;;;;;88.15;30.33;;;;;;;;;;5017703;28;20060;-81
2022/12/02 10:11:36;;;;;;;92.03;31.25;;;;;;;;;;5036845;28;20057;-82
2022/12/02 10:14:05;;;;;;;67.63;24.97;;;;;;;;;;5020072;28;20053;-82
2022/12/02 10:16:33;;;;;;;89.63;30.42;;;;;;;;;;5040477;28;20045;-78
2022/12/02 10:19:00;;;;;;;87.25;30.30;;;;;;;;;;5041479;28;20061;-81
2022/12/02 10:21:27;;;;;;;85.13;30.92;;;;;;;;;;5017360;28;20052;-83
2022/12/02 10:23:55;;;;;;;87.00;29.13;;;;;;;;;;5016880;28;20419;-80
2022/12/02 10:26:22;;;;;;;89.63;30.80;;;;;;;;;;5017787;28;20065;-81
2022/12/02 10:29:05;;;;;;;85.03;30.27;;;;;;;;;;5035469;28;20056;-82
2022/12/02 10:31:32;;;;;;;84.25;30.58;;;;;;;;;;5035427;28;20053;-81
2022/12/02 10:34:00;;;;;;;78.15;28.30;;;;;;;;;;5035627;28;20140;-81
2022/12/02 10:36:30;;;;;;;84.55;30.30;;;;;;;;;;5035646;28;20390;-82
2022/12/02 10:39:15;;;;;;;84.03;28.95;;;;;;;;;;5037263;28;20118;-80
2022/12/02 10:41:41;;;;;;;84.18;29.48;;;;;;;;;;5031396;28;20352;-83
2022/12/02 10:44:15;;;;;;;78.38;27.85;;;;;;;;;;5039561;28;20049;-79
2022/12/02 10:46:42;;;;;;;69.80;27.23;;;;;;;;;;5038135;28;20057;-81
2022/12/02 10:49:14;;;;;;;77.35;27.65;;;;;;;;;;5038148;28;20457;-80
2022/12/02 10:51:41;;;;;;;69.90;25.77;;;;;;;;;;5019667;28;20080;-80
2022/12/02 10:54:12;;;;;;;75.57;27.52;;;;;;;;;;5019472;28;20453;-83
2022/12/02 10:56:38;;;;;;;70.10;25.23;;;;;;;;;;5044926;28;20045;-79
2022/12/02 10:59:07;;;;;;;66.97;24.85;;;;;;;;;;5021985;28;20045;-78
2022/12/02 11:01:33;;;;;;;77.18;28.23;;;;;;;;;;5023632;28;20129;-78
2022/12/02 11:04:00;;;;;;;70.65;28.48;;;;;;;;;;5041592;28;20378;-79
2022/12/02 11:06:26;;;;;;;73.32;26.77;;;;;;;;;;5035713;28;20332;-81
2022/12/02 11:08:55;;;;;;;70.93;27.77;;;;;;;;;;5017477;28;20424;-80
2022/12/02 11:11:41;;;;;;;73.78;26.42;;;;;;;;;;5019949;28;20481;-80
2022/12/02 11:14:31;;;;;;;71.45;27.52;;;;;;;;;;5016060;28;20058;-82
2022/12/02 11:17:10;;;;;;;73.57;27.48;;;;;;;;;;5016229;28;20053;-79
2022/12/02 11:19:45;;;;;;;75.78;28.10;;;;;;;;;;5017079;28;20324;-83
2022/12/02 11:22:30;;;;;;;70.18;26.08;;;;;;;;;;5016992;28;20057;-80
2022/12/02 11:24:57;;;;;;;74.00;26.83;;;;;;;;;;5016222;28;20045;-81
2022/12/02 11:27:23;;;;;;;74.15;27.98;;;;;;;;;;5015805;28;20486;-82
2022/12/02 11:30:05;;;;;;;82.95;29.95;;;;;;;;;;5033629;28;20237;-79
2022/12/02 11:32:35;;;;;;;71.95;27.25;;;;;;;;;;5015726;28;20053;-81
2022/12/02 11:35:01;;;;;;;79.45;27.98;;;;;;;;;;5033037;28;20299;-81
2022/12/02 11:37:45;;;;;;;71.38;28.75;;;;;;;;;;5046655;28;20091;-79
2022/12/02 11:40:12;;;;;;;69.15;28.20;;;;;;;;;;5016899;28;20045;-80
2022/12/02 11:42:40;;;;;;;72.63;28.25;;;;;;;;;;5033113;28;20481;-81
2022/12/02 11:45:10;;;;;;;76.18;28.67;;;;;;;;;;5034866;28;20128;-81
2022/12/02 11:47:36;;;;;;;69.90;26.70;;;;;;;;;;5034276;28;20047;-80
2022/12/02 11:50:08;;;;;;;76.25;29.48;;;;;;;;;;5035164;28;20045;-81
2022/12/02 11:52:37;;;;;;;79.63;28.80;;;;;;;;;;5033438;28;20049;-82
2022/12/02 11:55:10;;;;;;;78.70;29.38;;;;;;;;;;5033819;28;20052;-81
2022/12/02 11:57:42;;;;;;;68.60;26.30;;;;;;;;;;5033783;28;20124;-80
2022/12/02 12:00:27;;;;;;;70.95;27.60;;;;;;;;;;5033627;28;20045;-81
2022/12/02 12:03:05;;;;;;;70.13;27.17;;;;;;;;;;5019966;28;20566;-78
2022/12/02 12:05:32;;;;;;;77.78;28.30;;;;;;;;;;5041749;28;20075;-77
2022/12/02 12:07:58;;;;;;;77.07;28.27;;;;;;;;;;5042991;28;20077;-78
2022/12/02 12:10:30;;;;;;;72.88;28.67;;;;;;;;;;5040415;28;20045;-79
2022/12/02 12:13:09;;;;;;;76.88;29.30;;;;;;;;;;5039426;28;20133;-80
2022/12/02 12:15:51;;;;;;;80.22;28.58;;;;;;;;;;5038697;28;20076;-80
2022/12/02 12:18:36;;;;;;;78.28;29.73;;;;;;;;;;5041135;28;20049;-82
2022/12/02 12:21:02;;;;;;;76.03;28.17;;;;;;;;;;5035264;28;20046;-82
2022/12/02 12:23:34;;;;;;;76.60;29.60;;;;;;;;;;5000198;28;20046;-81
2022/12/02 12:26:00;;;;;;;75.68;28.35;;;;;;;;;;4998297;28;20294;-80
2022/12/02 12:28:29;;;;;;;76.18;28.15;;;;;;;;;;5006453;28;20050;-78
2022/12/02 12:30:57;;;;;;;80.47;29.52;;;;;;;;;;5031205;28;20468;-81
2022/12/02 12:33:23;;;;;;;74.60;29.23;;;;;;;;;;5023422;28;20585;-82
2022/12/02 12:35:53;;;;;;;76.80;29.83;;;;;;;;;;5021643;28;20200;-80
2022/12/02 12:38:20;;;;;;;76.97;27.60;;;;;;;;;;5022997;28;20054;-81
2022/12/02 12:40:56;;;;;;;;;;;;;;;;;;5006634;28;20048;-86
2022/12/02 12:43:24;;;;;;;77.97;27.58;;;;;;;;;;5027161;28;19988;-86
2022/12/02 12:45:54;;;;;;;78.93;29.52;;;;;;;;;;5023498;28;20046;-81
2022/12/02 12:48:21;;;;;;;74.45;28.45;;;;;;;;;;5021536;28;20510;-81
2022/12/02 12:50:47;;;;;;;80.57;27.85;;;;;;;;;;5021623;28;20060;-81
2022/12/02 12:53:13;;;;;;;81.55;29.10;;;;;;;;;;5025255;28;20041;-81
2022/12/02 12:55:40;;;;;;;79.00;28.88;;;;;;;;;;5030495;28;20058;-79
2022/12/02 12:58:06;;;;;;;81.50;29.48;;;;;;;;;;5028430;28;20077;-81
2022/12/02 13:00:32;;;;;;;84.93;29.83;;;;;;;;;;5025104;28;20050;-80
2022/12/02 13:02:59;;;;;;;83.22;28.73;;;;;;;;;;5001349;28;20046;-81
2022/12/02 13:05:26;;;;;;;80.90;28.15;;;;;;;;;;5014027;28;20432;-80
2022/12/02 13:07:52;;;;;;;76.68;28.92;;;;;;;;;;5002364;28;20480;-80
2022/12/02 13:10:20;;;;;;;75.85;28.63;;;;;;;;;;5014562;28;20042;-81
2022/12/02 13:12:46;;;;;;;80.18;28.90;;;;;;;;;;5019755;28;20525;-81
2022/12/02 13:15:13;;;;;;;75.43;28.15;;;;;;;;;;5019885;28;20042;-82
2022/12/02 13:17:39;;;;;;;79.07;27.98;;;;;;;;;;5020769;28;20050;-81
2022/12/02 13:20:14;;;;;;;78.40;28.70;;;;;;;;;;5014011;28;20050;-81
2022/12/02 13:22:41;;;;;;;75.43;27.55;;;;;;;;;;5001692;28;20434;-81
2022/12/02 13:25:08;;;;;;;78.65;29.13;;;;;;;;;;5003576;28;20045;-79
2022/12/02 13:27:34;;;;;;;75.53;27.58;;;;;;;;;;5021133;28;20121;-83
2022/12/02 13:30:01;;;;;;;79.40;27.95;;;;;;;;;;5020244;28;20132;-80
2022/12/02 13:32:28;;;;;;;74.75;28.23;;;;;;;;;;5019175;28;20113;-81
2022/12/02 13:34:54;;;;;;;81.72;28.67;;;;;;;;;;5021065;28;20049;-82
2022/12/02 13:37:21;;;;;;;83.88;30.08;;;;;;;;;;5033876;28;20313;-79
2022/12/02 13:39:47;;;;;;;80.15;28.40;;;;;;;;;;5005677;28;20042;-79
2022/12/02 13:42:14;;;;;;;79.80;27.40;;;;;;;;;;5027684;28;20064;-79
2022/12/02 13:44:40;;;;;;;82.00;29.33;;;;;;;;;;5003084;28;20223;-82
2022/12/02 13:47:07;;;;;;;80.38;28.45;;;;;;;;;;5009706;28;20070;-83
2022/12/02 13:49:33;;;;;;;72.72;27.77;;;;;;;;;;5021186;28;20045;-82
2022/12/02 13:51:59;;;;;;;78.15;28.38;;;;;;;;;;5031287;28;20128;-80
2022/12/02 13:54:26;;;;;;;80.75;28.35;;;;;;;;;;5013878;28;20089;-80
2022/12/02 13:56:52;;;;;;;74.85;27.80;;;;;;;;;;4994593;28;20049;-81
2022/12/02 13:59:19;;;;;;;77.22;28.52;;;;;;;;;;5018785;28;20045;-80
2022/12/02 14:01:45;;;;;;;83.28;29.58;;;;;;;;;;5005368;28;20052;-78
2022/12/02 14:04:12;;;;;;;80.03;28.30;;;;;;;;;;5018120;28;20529;-80
2022/12/02 14:06:38;;;;;;;82.07;27.88;;;;;;;;;;4998535;28;20121;-80
2022/12/02 14:09:05;;;;;;;82.28;28.15;;;;;;;;;;5012967;28;20041;-81
2022/12/02 14:11:31;;;;;;;81.63;28.65;;;;;;;;;;5021519;28;20060;-81
2022/12/02 14:13:58;;;;;;;80.22;29.42;;;;;;;;;;5022927;28;20058;-78
2022/12/02 14:16:24;;;;;;;82.97;28.98;;;;;;;;;;5033750;28;20061;-76
2022/12/02 14:18:50;;;;;;;83.30;29.75;;;;;;;;;;5019056;28;20044;-80
2022/12/02 14:21:23;;;;;;;85.68;28.95;;;;;;;;;;4999047;28;20042;-81
2022/12/02 14:23:49;;;;;;;73.80;28.55;;;;;;;;;;5013041;28;20053;-80
2022/12/02 14:26:15;;;;;;;82.07;28.60;;;;;;;;;;5000547;28;20053;-79
2022/12/02 14:28:42;;;;;;;82.72;28.90;;;;;;;;;;5002135;28;20046;-80